createdAt,value
2018-07-05T00:02:09.978Z,14.54
2018-07-05T00:04:50.069Z,14.51
2018-07-05T00:07:30.942Z,14.46
2018-07-05T00:10:11.007Z,14.44
2018-07-05T00:12:51.056Z,14.39
2018-07-05T00:15:31.001Z,14.30
2018-07-05T00:18:10.936Z,14.26
2018-07-05T00:20:50.806Z,14.28
2018-07-05T00:23:30.797Z,14.23
2018-07-05T00:26:10.754Z,14.07
2018-07-05T00:28:50.778Z,13.90
2018-07-05T00:31:30.866Z,13.80
2018-07-05T00:34:10.988Z,13.74
2018-07-05T00:36:50.994Z,13.73
2018-07-05T00:39:31.181Z,13.73
2018-07-05T00:42:11.306Z,13.70
2018-07-05T00:44:51.411Z,13.70
2018-07-05T00:47:31.382Z,13.72
2018-07-05T00:50:11.481Z,13.67
2018-07-05T00:52:51.721Z,13.66
2018-07-05T00:55:31.579Z,13.56
2018-07-05T00:58:11.623Z,13.55
2018-07-05T01:00:51.704Z,13.55
2018-07-05T01:03:31.751Z,13.51
2018-07-05T01:06:11.747Z,13.38
2018-07-05T01:08:51.744Z,13.30
2018-07-05T01:11:31.914Z,13.31
2018-07-05T01:14:12.274Z,13.28
2018-07-05T01:16:52.337Z,13.30
2018-07-05T01:19:32.409Z,13.31
2018-07-05T01:22:12.415Z,13.35
2018-07-05T01:24:52.443Z,13.37
2018-07-05T01:27:36.598Z,13.36
2018-07-05T01:30:17.563Z,13.28
2018-07-05T01:32:57.455Z,13.19
2018-07-05T01:35:37.816Z,13.02
2018-07-05T01:38:18.084Z,12.96
2018-07-05T01:40:58.346Z,12.95
2018-07-05T01:43:38.535Z,12.95
2018-07-05T01:46:18.516Z,12.94
2018-07-05T01:48:58.633Z,12.89
2018-07-05T01:51:38.776Z,12.91
2018-07-05T01:54:18.836Z,12.94
2018-07-05T01:56:58.767Z,12.98
2018-07-05T01:59:38.933Z,13.00
2018-07-05T02:02:18.957Z,12.97
2018-07-05T02:04:58.996Z,12.91
2018-07-05T02:07:39.008Z,12.95
2018-07-05T02:10:19.052Z,12.90
2018-07-05T02:12:59.161Z,12.78
2018-07-05T02:15:39.320Z,12.73
2018-07-05T02:18:19.308Z,12.74
2018-07-05T02:21:03.078Z,12.69
2018-07-05T02:23:43.334Z,12.65
2018-07-05T02:26:23.566Z,12.62
2018-07-05T02:29:03.746Z,12.55
2018-07-05T02:31:43.931Z,12.55
2018-07-05T02:34:23.933Z,12.58
2018-07-05T02:37:04.702Z,12.60
2018-07-05T02:39:50.172Z,12.72
2018-07-05T02:42:30.234Z,12.71
2018-07-05T02:45:10.230Z,12.71
2018-07-05T02:47:50.321Z,12.69
2018-07-05T02:50:30.418Z,12.72
2018-07-05T02:53:10.569Z,12.74
2018-07-05T02:55:50.571Z,12.80
2018-07-05T02:58:30.573Z,12.85
2018-07-05T03:01:10.736Z,13.08
2018-07-05T03:03:51.001Z,13.32
2018-07-05T03:06:31.020Z,13.48
2018-07-05T03:09:11.073Z,13.45
2018-07-05T03:11:51.439Z,13.45
2018-07-05T03:14:31.410Z,13.49
2018-07-05T03:17:11.655Z,13.62
2018-07-05T03:19:51.747Z,13.73
2018-07-05T03:22:31.852Z,13.81
2018-07-05T03:25:11.990Z,13.86
2018-07-05T03:27:51.963Z,13.87
2018-07-05T03:30:32.117Z,13.88
2018-07-05T03:33:12.444Z,13.90
2018-07-05T03:35:52.513Z,13.93
2018-07-05T03:38:32.698Z,13.98
2018-07-05T03:41:12.800Z,13.98
2018-07-05T03:43:52.907Z,14.03
2018-07-05T03:46:33.097Z,14.06
2018-07-05T03:49:13.165Z,14.02
2018-07-05T03:51:53.268Z,14.02
2018-07-05T03:54:33.359Z,14.01
2018-07-05T03:57:13.436Z,14.03
2018-07-05T03:59:53.703Z,14.08
2018-07-05T04:02:33.864Z,14.16
2018-07-05T04:05:14.088Z,14.26
2018-07-05T04:07:54.202Z,14.39
2018-07-05T04:10:34.388Z,14.50
2018-07-05T04:13:14.476Z,14.56
2018-07-05T04:15:54.545Z,14.60
2018-07-05T04:18:34.833Z,14.64
2018-07-05T04:21:14.996Z,14.70
2018-07-05T04:23:55.178Z,14.76
2018-07-05T04:26:35.415Z,14.81
2018-07-05T04:29:15.685Z,14.87
2018-07-05T04:31:55.804Z,14.98
2018-07-05T04:34:35.872Z,15.07
2018-07-05T04:37:16.013Z,15.18
2018-07-05T04:39:56.203Z,15.29
2018-07-05T04:42:36.410Z,15.38
2018-07-05T04:45:16.451Z,15.47
2018-07-05T04:47:56.536Z,15.60
2018-07-05T04:50:36.621Z,15.77
2018-07-05T04:53:16.791Z,15.91
2018-07-05T04:55:56.899Z,16.08
2018-07-05T04:58:36.981Z,16.21
2018-07-05T05:01:17.221Z,16.32
2018-07-05T05:03:57.297Z,16.36
2018-07-05T05:06:37.423Z,16.39
2018-07-05T05:09:17.622Z,16.42
2018-07-05T05:11:57.661Z,16.46
2018-07-05T05:14:41.365Z,16.55
2018-07-05T05:17:21.522Z,16.67
2018-07-05T05:20:01.613Z,16.77
2018-07-05T05:22:41.845Z,16.83
2018-07-05T05:25:22.061Z,16.87
2018-07-05T05:28:02.109Z,17.10
2018-07-05T05:30:42.245Z,17.17
2018-07-05T05:33:22.361Z,17.14
2018-07-05T05:36:02.558Z,17.56
2018-07-05T05:38:42.874Z,18.24
2018-07-05T05:41:23.040Z,18.93
2018-07-05T05:44:03.323Z,19.46
2018-07-05T05:46:43.539Z,19.42
2018-07-05T05:49:23.885Z,19.25
2018-07-05T05:52:04.245Z,19.95
2018-07-05T05:54:44.400Z,20.04
2018-07-05T05:57:24.647Z,20.22
2018-07-05T06:00:04.914Z,20.15
2018-07-05T06:02:45.182Z,19.79
2018-07-05T06:05:25.258Z,19.99
2018-07-05T06:08:07.544Z,19.73
2018-07-05T06:10:47.756Z,20.03
2018-07-05T06:13:27.933Z,20.45
2018-07-05T06:16:08.049Z,20.41
2018-07-05T06:18:48.090Z,19.95
2018-07-05T06:21:28.344Z,19.70
2018-07-05T06:24:08.504Z,19.47
2018-07-05T06:26:48.642Z,19.31
2018-07-05T06:29:28.837Z,19.24
2018-07-05T06:32:09.027Z,19.16
2018-07-05T06:34:49.233Z,19.03
2018-07-05T06:37:29.426Z,19.07
2018-07-05T06:40:10.340Z,19.27
2018-07-05T06:42:50.638Z,19.44
2018-07-05T06:45:30.785Z,19.49
2018-07-05T06:48:11.100Z,19.67
2018-07-05T06:50:51.424Z,19.68
2018-07-05T06:53:31.471Z,19.73
2018-07-05T06:56:11.769Z,19.87
2018-07-05T06:58:52.056Z,19.95
2018-07-05T07:01:32.299Z,20.02
2018-07-05T07:04:12.634Z,20.07
2018-07-05T07:06:52.701Z,20.14
2018-07-05T07:09:32.884Z,20.32
2018-07-05T07:12:13.051Z,20.60
2018-07-05T07:14:53.201Z,20.68
2018-07-05T07:17:33.375Z,20.90
2018-07-05T07:20:13.562Z,21.09
2018-07-05T07:22:53.629Z,21.26
2018-07-05T07:25:33.938Z,21.41
2018-07-05T07:28:14.121Z,21.48
2018-07-05T07:30:54.409Z,21.66
2018-07-05T07:33:34.485Z,21.86
2018-07-05T07:36:14.741Z,22.06
2018-07-05T07:38:55.017Z,22.32
2018-07-05T07:41:35.305Z,22.06
2018-07-05T07:44:03.166Z,22.11
2018-07-05T07:46:30.950Z,22.17
2018-07-05T07:48:58.612Z,22.25
2018-07-05T07:51:26.337Z,22.21
2018-07-05T07:53:54.155Z,22.19
2018-07-05T07:56:21.909Z,21.84
2018-07-05T07:58:49.579Z,21.98
2018-07-05T08:01:17.304Z,22.24
2018-07-05T08:03:44.969Z,22.58
2018-07-05T08:06:12.786Z,22.63
2018-07-05T08:08:40.455Z,22.75
2018-07-05T08:11:08.199Z,22.75
2018-07-05T08:13:35.881Z,22.96
2018-07-05T08:16:03.551Z,22.90
2018-07-05T08:18:31.245Z,22.98
2018-07-05T08:20:58.917Z,23.12
2018-07-05T08:23:26.685Z,23.19
2018-07-05T08:25:54.446Z,23.50
2018-07-05T08:28:22.169Z,23.41
2018-07-05T08:30:49.809Z,23.25
2018-07-05T08:33:17.489Z,23.26
2018-07-05T08:35:45.212Z,23.26
2018-07-05T08:38:13.005Z,23.50
2018-07-05T08:40:40.703Z,23.88
2018-07-05T08:43:08.427Z,23.78
2018-07-05T08:45:36.091Z,23.86
2018-07-05T08:48:03.779Z,23.88
2018-07-05T08:50:31.454Z,24.22
2018-07-05T08:52:59.175Z,23.80
2018-07-05T08:55:26.801Z,23.98
2018-07-05T08:57:54.458Z,23.98
2018-07-05T09:00:22.122Z,24.12
2018-07-05T09:02:49.799Z,24.35
2018-07-05T09:05:17.554Z,24.93
2018-07-05T09:07:45.215Z,24.92
2018-07-05T09:10:12.852Z,25.25
2018-07-05T09:12:40.498Z,25.26
2018-07-05T09:15:08.097Z,24.81
2018-07-05T09:17:35.860Z,24.55
2018-07-05T09:20:03.488Z,24.33
2018-07-05T09:22:31.205Z,24.62
2018-07-05T09:24:58.960Z,24.99
2018-07-05T09:27:26.681Z,24.91
2018-07-05T09:29:54.353Z,24.80
2018-07-05T09:32:22.048Z,24.54
2018-07-05T09:34:49.757Z,24.96
2018-07-05T09:37:17.596Z,25.12
2018-07-05T09:39:45.395Z,25.04
2018-07-05T09:42:13.061Z,25.33
2018-07-05T09:44:40.764Z,25.79
2018-07-05T09:47:08.507Z,26.25
2018-07-05T09:49:36.306Z,25.63
2018-07-05T09:52:03.964Z,25.24
2018-07-05T09:54:31.672Z,25.41
2018-07-05T10:03:41.842Z,25.88
2018-07-05T10:06:09.527Z,25.68
2018-07-05T10:08:37.210Z,25.87
2018-07-05T10:11:04.864Z,25.85
2018-07-05T10:13:32.909Z,25.70
2018-07-05T10:16:00.352Z,25.96
2018-07-05T10:18:28.266Z,25.82
2018-07-05T10:20:56.026Z,25.80
2018-07-05T10:23:23.778Z,25.84
2018-07-05T10:25:51.427Z,26.03
2018-07-05T10:28:19.141Z,26.04
2018-07-05T10:30:59.077Z,25.68
2018-07-05T10:33:41.026Z,25.53
2018-07-05T10:36:08.666Z,25.66
2018-07-05T10:38:36.390Z,25.72
2018-07-05T10:41:16.568Z,25.81
2018-07-05T10:43:56.810Z,26.33
2018-07-05T10:46:36.835Z,26.05
2018-07-05T10:49:17.043Z,25.72
2018-07-05T10:51:57.289Z,25.96
2018-07-05T10:54:37.454Z,25.81
2018-07-05T10:57:17.753Z,25.98
2018-07-05T10:59:58.044Z,26.24
2018-07-05T11:02:38.129Z,26.32
2018-07-05T11:05:18.117Z,25.85
2018-07-05T11:07:58.195Z,25.92
2018-07-05T11:10:38.250Z,26.29
2018-07-05T11:13:18.341Z,26.46
2018-07-05T11:15:58.528Z,26.30
2018-07-05T11:18:38.515Z,26.33
2018-07-05T11:21:18.788Z,26.47
2018-07-05T11:23:58.782Z,26.59
2018-07-05T11:26:38.994Z,26.55
2018-07-05T11:29:19.244Z,26.51
2018-07-05T11:31:59.469Z,26.46
2018-07-05T11:34:39.705Z,26.68
2018-07-05T11:37:19.906Z,26.59
2018-07-05T11:40:00.122Z,26.50
2018-07-05T11:42:40.379Z,26.30
2018-07-05T11:45:21.537Z,26.40
2018-07-05T11:48:01.678Z,26.60
2018-07-05T11:50:41.739Z,26.77
2018-07-05T11:53:22.036Z,26.43
2018-07-05T11:56:02.077Z,26.20
2018-07-05T11:58:42.309Z,26.41
2018-07-05T12:01:22.478Z,26.62
2018-07-05T12:04:02.615Z,26.44
2018-07-05T12:06:42.683Z,25.92
2018-07-05T12:09:22.781Z,25.74
2018-07-05T12:12:02.938Z,26.16
2018-07-05T12:14:43.043Z,26.52
2018-07-05T12:17:23.178Z,26.50
2018-07-05T12:20:03.199Z,26.47
2018-07-05T12:22:43.185Z,26.72
2018-07-05T12:25:23.398Z,26.79
2018-07-05T12:28:03.562Z,26.72
2018-07-05T12:30:43.704Z,26.83
2018-07-05T12:33:23.867Z,26.57
2018-07-05T12:36:04.033Z,26.08
2018-07-05T12:38:44.302Z,26.20
2018-07-05T12:41:24.354Z,25.90
2018-07-05T12:44:04.545Z,26.17
2018-07-05T12:46:44.710Z,26.48
2018-07-05T12:49:24.852Z,26.45
2018-07-05T12:52:05.066Z,26.52
2018-07-05T12:54:45.137Z,26.63
2018-07-05T12:57:25.270Z,26.46
2018-07-05T13:00:05.380Z,26.38
2018-07-05T13:02:45.637Z,26.18
2018-07-05T13:05:25.961Z,26.33
2018-07-05T13:08:06.036Z,26.39
2018-07-05T13:10:46.122Z,26.64
2018-07-05T13:13:26.261Z,25.94
2018-07-05T13:16:06.288Z,25.73
2018-07-05T13:18:46.565Z,25.79
2018-07-05T13:21:26.448Z,25.81
2018-07-05T13:24:06.637Z,25.85
2018-07-05T13:26:46.761Z,26.08
2018-07-05T13:29:26.935Z,25.83
2018-07-05T13:32:07.132Z,25.64
2018-07-05T13:34:47.205Z,25.47
2018-07-05T13:37:27.326Z,25.69
2018-07-05T13:40:07.331Z,25.67
2018-07-05T13:42:47.326Z,25.62
2018-07-05T13:45:27.335Z,25.79
2018-07-05T13:48:08.255Z,25.73
2018-07-05T13:50:48.341Z,25.95
2018-07-05T13:53:28.473Z,26.23
2018-07-05T13:56:08.509Z,26.48
2018-07-05T13:58:48.505Z,26.37
2018-07-05T14:01:28.448Z,26.51
2018-07-05T14:04:08.736Z,26.19
2018-07-05T14:06:48.693Z,25.73
2018-07-05T14:09:28.885Z,25.93
2018-07-05T14:12:09.030Z,26.03
2018-07-05T14:14:49.254Z,26.03
2018-07-05T14:17:29.183Z,26.18
2018-07-05T14:20:09.345Z,25.89
2018-07-05T14:22:49.541Z,25.83
2018-07-05T14:25:29.697Z,25.95
2018-07-05T14:28:09.937Z,26.04
2018-07-05T14:30:50.156Z,25.87
2018-07-05T14:33:30.230Z,25.58
2018-07-05T14:36:10.165Z,25.33
2018-07-05T14:38:50.095Z,25.64
2018-07-05T14:41:30.220Z,26.22
2018-07-05T14:44:10.327Z,26.16
2018-07-05T14:46:50.564Z,25.82
2018-07-05T14:49:30.687Z,25.88
2018-07-05T14:52:10.859Z,25.55
2018-07-05T14:54:50.884Z,25.49
2018-07-05T14:57:30.944Z,25.70
2018-07-05T15:00:11.095Z,25.48
2018-07-05T15:02:51.245Z,25.48
2018-07-05T15:05:31.279Z,25.38
2018-07-05T15:08:11.623Z,25.23
2018-07-05T15:10:51.709Z,25.38
2018-07-05T15:13:31.949Z,24.80
2018-07-05T15:16:12.349Z,24.68
2018-07-05T15:18:52.598Z,24.71
2018-07-05T15:21:32.919Z,24.74
2018-07-05T15:24:13.028Z,24.78
2018-07-05T15:26:53.029Z,24.65
2018-07-05T15:29:33.195Z,24.63
2018-07-05T15:32:13.373Z,24.83
2018-07-05T15:34:53.533Z,24.25
2018-07-05T15:37:33.629Z,23.99
2018-07-05T15:40:13.876Z,24.13
2018-07-05T15:42:54.259Z,24.24
2018-07-05T15:45:34.261Z,23.94
2018-07-05T15:48:14.412Z,24.08
2018-07-05T15:50:54.668Z,24.10
2018-07-05T15:53:34.937Z,23.72
2018-07-05T15:56:15.016Z,23.37
2018-07-05T15:58:55.018Z,23.28
2018-07-05T16:01:35.232Z,23.20
2018-07-05T16:04:15.454Z,23.25
2018-07-05T16:06:55.522Z,23.26
2018-07-05T16:09:35.786Z,23.41
2018-07-05T16:12:15.932Z,22.92
2018-07-05T16:14:55.873Z,22.78
2018-07-05T16:17:35.933Z,22.77
2018-07-05T16:20:16.314Z,22.64
2018-07-05T16:22:56.370Z,22.70
2018-07-05T16:25:36.525Z,22.64
2018-07-05T16:28:16.713Z,22.56
2018-07-05T16:30:56.973Z,22.58
2018-07-05T16:33:38.012Z,22.58
2018-07-05T16:36:18.041Z,22.31
2018-07-05T16:38:58.127Z,22.31
2018-07-05T16:41:38.284Z,22.22
2018-07-05T16:44:18.481Z,22.12
2018-07-05T16:46:58.678Z,22.10
2018-07-05T16:49:38.778Z,22.19
2018-07-05T16:52:18.836Z,22.12
2018-07-05T16:54:59.109Z,22.07
2018-07-05T16:57:39.171Z,22.01
2018-07-05T17:00:19.099Z,21.98
2018-07-05T17:02:59.362Z,21.96
2018-07-05T17:05:39.538Z,21.99
2018-07-05T17:08:19.635Z,21.91
2018-07-05T17:10:59.825Z,21.78
2018-07-05T17:13:40.014Z,21.64
2018-07-05T17:16:20.084Z,21.67
2018-07-05T17:19:00.343Z,21.39
2018-07-05T17:21:40.633Z,21.50
2018-07-05T17:24:20.748Z,21.51
2018-07-05T17:27:01.041Z,21.54
2018-07-05T17:29:41.190Z,21.61
2018-07-05T17:32:21.234Z,21.41
2018-07-05T17:35:01.262Z,21.36
2018-07-05T17:37:41.509Z,20.94
2018-07-05T17:40:21.648Z,21.09
2018-07-05T17:43:01.789Z,22.18
2018-07-05T17:45:41.982Z,23.06
2018-07-05T17:48:22.053Z,23.34
2018-07-05T17:51:02.198Z,23.57
2018-07-05T17:53:42.379Z,23.46
2018-07-05T17:56:22.450Z,23.44
2018-07-05T17:59:02.793Z,23.12
2018-07-05T18:01:42.619Z,23.10
2018-07-05T18:04:22.778Z,23.08
2018-07-05T18:07:02.966Z,23.62
2018-07-05T18:09:42.955Z,23.70
2018-07-05T18:12:23.025Z,22.78
2018-07-05T18:15:03.069Z,22.87
2018-07-05T18:17:43.248Z,21.97
2018-07-05T18:20:23.445Z,20.94
2018-07-05T18:23:03.496Z,20.26
2018-07-05T18:25:43.771Z,20.55
2018-07-05T18:28:23.817Z,20.90
2018-07-05T18:31:03.793Z,20.50
2018-07-05T18:33:43.744Z,20.23
2018-07-05T18:36:23.841Z,20.01
2018-07-05T18:39:03.932Z,19.74
2018-07-05T18:41:44.089Z,19.43
2018-07-05T18:44:24.319Z,19.20
2018-07-05T18:47:04.467Z,19.00
2018-07-05T18:49:45.237Z,18.81
2018-07-05T18:52:25.457Z,18.69
2018-07-05T18:55:05.561Z,18.64
2018-07-05T18:57:45.615Z,18.61
2018-07-05T19:00:25.787Z,18.64
2018-07-05T19:03:06.057Z,18.69
2018-07-05T19:05:46.213Z,18.74
2018-07-05T19:08:26.595Z,18.77
2018-07-05T19:11:06.841Z,18.79
2018-07-05T19:13:46.908Z,18.82
2018-07-05T19:16:27.309Z,18.85
2018-07-05T19:19:07.335Z,18.81
2018-07-05T19:21:47.665Z,18.75
2018-07-05T19:24:27.584Z,18.67
2018-07-05T19:27:07.808Z,18.66
2018-07-05T19:29:48.078Z,18.63
2018-07-05T19:32:28.558Z,18.56
2018-07-05T19:35:08.668Z,18.49
2018-07-05T19:37:48.987Z,18.44
2018-07-05T19:40:29.209Z,18.36
2018-07-05T19:43:09.321Z,18.32
2018-07-05T19:45:49.426Z,18.28
2018-07-05T19:48:29.625Z,18.23
2018-07-05T19:51:09.645Z,18.23
2018-07-05T19:53:49.674Z,18.17
2018-07-05T19:56:29.856Z,18.10
2018-07-05T19:59:10.125Z,18.03
2018-07-05T20:01:50.105Z,17.96
2018-07-05T20:04:30.237Z,17.93
2018-07-05T20:07:10.414Z,17.96
2018-07-05T20:09:50.593Z,17.91
2018-07-05T20:12:30.670Z,17.88
2018-07-05T20:15:11.022Z,17.86
2018-07-05T20:17:51.158Z,17.80
2018-07-05T20:20:31.336Z,17.77
2018-07-05T20:23:11.604Z,17.76
2018-07-05T20:25:51.850Z,17.71
2018-07-05T20:28:31.974Z,17.65
2018-07-05T20:31:11.991Z,17.58
2018-07-05T20:33:52.085Z,17.53
2018-07-05T20:36:32.442Z,17.54
2018-07-05T20:39:12.561Z,17.56
2018-07-05T20:41:52.678Z,17.56
2018-07-05T20:44:32.858Z,17.50
2018-07-05T20:47:13.002Z,17.47
2018-07-05T20:49:53.140Z,17.45
2018-07-05T20:52:33.337Z,17.44
2018-07-05T20:55:13.537Z,17.47
2018-07-05T20:57:53.679Z,17.45
2018-07-05T21:00:33.917Z,17.44
2018-07-05T21:03:14.134Z,17.41
2018-07-05T21:05:54.435Z,17.41
2018-07-05T21:08:34.652Z,17.39
2018-07-05T21:11:14.729Z,17.38
2018-07-05T21:13:54.938Z,17.34
2018-07-05T21:16:35.004Z,17.33
2018-07-05T21:19:14.991Z,17.33
2018-07-05T21:21:55.108Z,17.33
2018-07-05T21:24:36.556Z,17.30
2018-07-05T21:27:16.608Z,17.30
2018-07-05T21:29:56.545Z,17.30
2018-07-05T21:32:36.505Z,17.28
2018-07-05T21:35:16.709Z,17.26
2018-07-05T21:37:56.682Z,17.25
2018-07-05T21:40:36.768Z,17.27
2018-07-05T21:43:16.743Z,17.27
2018-07-05T21:45:56.818Z,17.23
2018-07-05T21:48:37.102Z,17.21
2018-07-05T21:51:17.137Z,17.18
2018-07-05T21:53:57.093Z,17.18
2018-07-05T21:56:37.315Z,17.15
2018-07-05T21:59:17.338Z,17.11
2018-07-05T22:01:57.442Z,17.05
2018-07-05T22:04:37.578Z,17.01
2018-07-05T22:07:17.623Z,16.99
2018-07-05T22:09:57.856Z,16.95
2018-07-05T22:12:37.927Z,16.90
2018-07-05T22:15:17.976Z,16.89
2018-07-05T22:18:03.296Z,16.87
2018-07-05T22:20:49.770Z,16.88
2018-07-05T22:23:34.871Z,16.91
2018-07-05T22:26:20.136Z,16.88
2018-07-05T22:29:05.270Z,16.84
2018-07-05T22:31:45.519Z,16.82
2018-07-05T22:34:25.602Z,16.70
2018-07-05T22:37:05.685Z,16.64
2018-07-05T22:39:46.001Z,16.57
2018-07-05T22:42:26.275Z,16.55
2018-07-05T22:45:06.371Z,16.51
2018-07-05T22:47:46.395Z,16.49
2018-07-05T22:50:26.403Z,16.45
2018-07-05T22:53:06.581Z,16.44
2018-07-05T22:55:46.412Z,16.44
2018-07-05T22:58:26.544Z,16.44
2018-07-05T23:01:06.499Z,16.44
2018-07-05T23:03:46.694Z,16.43
2018-07-05T23:06:26.982Z,16.37
2018-07-05T23:09:07.129Z,16.36
2018-07-05T23:11:47.171Z,16.33
2018-07-05T23:14:27.344Z,16.33
2018-07-05T23:17:07.471Z,16.25
2018-07-05T23:19:47.640Z,16.21
2018-07-05T23:22:27.891Z,16.15
2018-07-05T23:25:08.091Z,16.12
2018-07-05T23:27:48.763Z,16.06
2018-07-05T23:30:28.755Z,16.04
2018-07-05T23:33:08.881Z,16.03
2018-07-05T23:35:49.143Z,16.01
2018-07-05T23:38:29.170Z,16.00
2018-07-05T23:41:09.162Z,15.95
2018-07-05T23:43:49.358Z,15.89
2018-07-05T23:46:29.605Z,15.85
2018-07-05T23:49:09.756Z,15.83
2018-07-05T23:51:49.909Z,15.83
2018-07-05T23:54:29.930Z,15.80
2018-07-05T23:57:10.101Z,15.80
2018-07-05T23:59:50.344Z,15.79
